sensor_id;sensor_type;location;lat;lon;timestamp;P1;durP1;ratioP1;P2;durP2;ratioP2
24357;SDS011;13668;52.154;5.580;2023-06-14T00:01:48;1.70;;;1.33;;
24357;SDS011;13668;52.154;5.580;2023-06-14T00:04:14;3.15;;;1.80;;
24357;SDS011;13668;52.154;5.580;2023-06-14T00:06:45;1.95;;;1.30;;
24357;SDS011;13668;52.154;5.580;2023-06-14T00:09:12;1.50;;;1.20;;
24357;SDS011;13668;52.154;5.580;2023-06-14T00:11:38;1.80;;;1.40;;
24357;SDS011;13668;52.154;5.580;2023-06-14T00:14:05;1.55;;;1.13;;
24357;SDS011;13668;52.154;5.580;2023-06-14T00:16:30;1.60;;;1.20;;
24357;SDS011;13668;52.154;5.580;2023-06-14T00:18:58;2.03;;;1.10;;
24357;SDS011;13668;52.154;5.580;2023-06-14T00:21:24;1.35;;;1.17;;
24357;SDS011;13668;52.154;5.580;2023-06-14T00:23:53;1.33;;;1.10;;
24357;SDS011;13668;52.154;5.580;2023-06-14T00:26:19;1.00;;;0.90;;
24357;SDS011;13668;52.154;5.580;2023-06-14T00:28:45;1.15;;;1.00;;
24357;SDS011;13668;52.154;5.580;2023-06-14T00:31:11;3.05;;;1.52;;
24357;SDS011;13668;52.154;5.580;2023-06-14T00:33:37;2.97;;;1.50;;
24357;SDS011;13668;52.154;5.580;2023-06-14T00:36:03;1.98;;;1.40;;
24357;SDS011;13668;52.154;5.580;2023-06-14T00:38:29;1.40;;;1.17;;
24357;SDS011;13668;52.154;5.580;2023-06-14T00:40:55;1.00;;;1.00;;
24357;SDS011;13668;52.154;5.580;2023-06-14T00:43:21;4.28;;;1.30;;
24357;SDS011;13668;52.154;5.580;2023-06-14T00:45:46;2.08;;;1.08;;
24357;SDS011;13668;52.154;5.580;2023-06-14T00:48:14;1.13;;;1.02;;
24357;SDS011;13668;52.154;5.580;2023-06-14T00:50:40;3.30;;;1.38;;
24357;SDS011;13668;52.154;5.580;2023-06-14T00:53:07;1.55;;;1.20;;
24357;SDS011;13668;52.154;5.580;2023-06-14T00:55:33;1.70;;;1.58;;
24357;SDS011;13668;52.154;5.580;2023-06-14T00:57:58;2.70;;;1.48;;
24357;SDS011;13668;52.154;5.580;2023-06-14T01:00:25;5.10;;;1.42;;
24357;SDS011;13668;52.154;5.580;2023-06-14T01:02:53;1.35;;;1.10;;
24357;SDS011;13668;52.154;5.580;2023-06-14T01:05:20;1.85;;;1.42;;
24357;SDS011;13668;52.154;5.580;2023-06-14T01:10:26;1.30;;;1.20;;
24357;SDS011;13668;52.154;5.580;2023-06-14T01:15:26;1.48;;;1.33;;
24357;SDS011;13668;52.154;5.580;2023-06-14T01:17:53;1.83;;;1.00;;
24357;SDS011;13668;52.154;5.580;2023-06-14T01:20:22;1.83;;;1.42;;
24357;SDS011;13668;52.154;5.580;2023-06-14T01:22:54;3.92;;;1.67;;
24357;SDS011;13668;52.154;5.580;2023-06-14T01:25:21;2.58;;;1.17;;
24357;SDS011;13668;52.154;5.580;2023-06-14T01:27:48;1.30;;;1.20;;
24357;SDS011;13668;52.154;5.580;2023-06-14T01:30:15;1.35;;;1.25;;
24357;SDS011;13668;52.154;5.580;2023-06-14T01:32:41;1.85;;;1.33;;
24357;SDS011;13668;52.154;5.580;2023-06-14T01:35:07;2.55;;;1.30;;
24357;SDS011;13668;52.154;5.580;2023-06-14T01:37:33;1.83;;;1.45;;
24357;SDS011;13668;52.154;5.580;2023-06-14T01:39:59;1.30;;;1.10;;
24357;SDS011;13668;52.154;5.580;2023-06-14T01:42:25;1.20;;;1.10;;
24357;SDS011;13668;52.154;5.580;2023-06-14T01:44:52;1.48;;;1.00;;
24357;SDS011;13668;52.154;5.580;2023-06-14T01:47:19;1.77;;;1.50;;
24357;SDS011;13668;52.154;5.580;2023-06-14T01:49:46;1.40;;;1.20;;
24357;SDS011;13668;52.154;5.580;2023-06-14T01:52:12;3.72;;;1.55;;
24357;SDS011;13668;52.154;5.580;2023-06-14T01:54:38;1.85;;;1.10;;
24357;SDS011;13668;52.154;5.580;2023-06-14T01:57:08;1.60;;;1.48;;
24357;SDS011;13668;52.154;5.580;2023-06-14T01:59:34;2.28;;;1.40;;
24357;SDS011;13668;52.154;5.580;2023-06-14T02:02:00;1.33;;;1.23;;
24357;SDS011;13668;52.154;5.580;2023-06-14T02:04:26;1.95;;;1.23;;
24357;SDS011;13668;52.154;5.580;2023-06-14T02:06:52;1.95;;;1.08;;
24357;SDS011;13668;52.154;5.580;2023-06-14T02:09:18;1.92;;;1.27;;
24357;SDS011;13668;52.154;5.580;2023-06-14T02:11:43;3.15;;;1.27;;
24357;SDS011;13668;52.154;5.580;2023-06-14T02:14:10;1.90;;;1.00;;
24357;SDS011;13668;52.154;5.580;2023-06-14T02:16:36;2.10;;;1.60;;
24357;SDS011;13668;52.154;5.580;2023-06-14T02:19:04;1.15;;;1.05;;
24357;SDS011;13668;52.154;5.580;2023-06-14T02:21:30;1.88;;;1.27;;
24357;SDS011;13668;52.154;5.580;2023-06-14T02:23:56;1.38;;;0.90;;
24357;SDS011;13668;52.154;5.580;2023-06-14T02:26:23;2.00;;;1.27;;
24357;SDS011;13668;52.154;5.580;2023-06-14T02:28:49;1.67;;;1.40;;
24357;SDS011;13668;52.154;5.580;2023-06-14T02:31:15;1.48;;;1.17;;
24357;SDS011;13668;52.154;5.580;2023-06-14T02:33:41;1.17;;;1.10;;
24357;SDS011;13668;52.154;5.580;2023-06-14T02:36:07;1.67;;;1.20;;
24357;SDS011;13668;52.154;5.580;2023-06-14T02:38:33;2.15;;;1.50;;
24357;SDS011;13668;52.154;5.580;2023-06-14T02:40:59;1.77;;;1.42;;
24357;SDS011;13668;52.154;5.580;2023-06-14T02:43:26;2.90;;;1.30;;
24357;SDS011;13668;52.154;5.580;2023-06-14T02:45:52;1.30;;;1.20;;
24357;SDS011;13668;52.154;5.580;2023-06-14T02:48:18;1.70;;;1.60;;
24357;SDS011;13668;52.154;5.580;2023-06-14T02:50:44;1.95;;;1.08;;
24357;SDS011;13668;52.154;5.580;2023-06-14T02:53:10;1.50;;;1.35;;
24357;SDS011;13668;52.154;5.580;2023-06-14T02:55:37;1.65;;;1.30;;
24357;SDS011;13668;52.154;5.580;2023-06-14T02:58:04;2.17;;;1.40;;
24357;SDS011;13668;52.154;5.580;2023-06-14T03:00:30;2.83;;;1.75;;
24357;SDS011;13668;52.154;5.580;2023-06-14T03:02:56;1.45;;;1.25;;
24357;SDS011;13668;52.154;5.580;2023-06-14T03:05:22;2.13;;;1.30;;
24357;SDS011;13668;52.154;5.580;2023-06-14T03:07:49;1.42;;;1.33;;
24357;SDS011;13668;52.154;5.580;2023-06-14T03:10:15;1.25;;;1.15;;
24357;SDS011;13668;52.154;5.580;2023-06-14T03:12:41;2.40;;;1.73;;
24357;SDS011;13668;52.154;5.580;2023-06-14T03:15:07;1.67;;;1.23;;
24357;SDS011;13668;52.154;5.580;2023-06-14T03:17:34;1.90;;;1.30;;
24357;SDS011;13668;52.154;5.580;2023-06-14T03:20:04;3.13;;;1.38;;
24357;SDS011;13668;52.154;5.580;2023-06-14T03:22:30;2.13;;;1.83;;
24357;SDS011;13668;52.154;5.580;2023-06-14T03:24:59;1.80;;;1.40;;
24357;SDS011;13668;52.154;5.580;2023-06-14T03:27:25;2.42;;;1.25;;
24357;SDS011;13668;52.154;5.580;2023-06-14T03:29:53;3.25;;;1.48;;
24357;SDS011;13668;52.154;5.580;2023-06-14T03:32:19;2.50;;;1.65;;
24357;SDS011;13668;52.154;5.580;2023-06-14T03:34:45;1.30;;;1.20;;
24357;SDS011;13668;52.154;5.580;2023-06-14T03:37:11;1.92;;;1.30;;
24357;SDS011;13668;52.154;5.580;2023-06-14T03:39:37;2.08;;;1.20;;
24357;SDS011;13668;52.154;5.580;2023-06-14T03:42:10;1.60;;;1.08;;
24357;SDS011;13668;52.154;5.580;2023-06-14T03:44:36;1.50;;;1.00;;
24357;SDS011;13668;52.154;5.580;2023-06-14T03:47:03;1.80;;;1.45;;
24357;SDS011;13668;52.154;5.580;2023-06-14T03:49:29;1.30;;;1.00;;
24357;SDS011;13668;52.154;5.580;2023-06-14T03:51:55;2.45;;;2.20;;
24357;SDS011;13668;52.154;5.580;2023-06-14T03:54:21;3.70;;;1.25;;
24357;SDS011;13668;52.154;5.580;2023-06-14T03:56:47;1.30;;;1.20;;
24357;SDS011;13668;52.154;5.580;2023-06-14T03:59:13;1.63;;;1.52;;
24357;SDS011;13668;52.154;5.580;2023-06-14T04:01:39;1.63;;;1.20;;
24357;SDS011;13668;52.154;5.580;2023-06-14T04:04:10;2.70;;;1.40;;
24357;SDS011;13668;52.154;5.580;2023-06-14T04:06:36;3.00;;;1.83;;
24357;SDS011;13668;52.154;5.580;2023-06-14T04:09:02;3.45;;;1.70;;
24357;SDS011;13668;52.154;5.580;2023-06-14T04:11:29;1.38;;;1.00;;
24357;SDS011;13668;52.154;5.580;2023-06-14T04:13:55;1.77;;;1.52;;
24357;SDS011;13668;52.154;5.580;2023-06-14T04:16:21;2.60;;;1.50;;
24357;SDS011;13668;52.154;5.580;2023-06-14T04:18:47;1.77;;;1.35;;
24357;SDS011;13668;52.154;5.580;2023-06-14T04:21:16;1.88;;;1.50;;
24357;SDS011;13668;52.154;5.580;2023-06-14T04:23:42;1.27;;;1.17;;
24357;SDS011;13668;52.154;5.580;2023-06-14T04:26:09;2.17;;;1.15;;
24357;SDS011;13668;52.154;5.580;2023-06-14T04:28:35;1.67;;;1.58;;
24357;SDS011;13668;52.154;5.580;2023-06-14T04:31:06;3.20;;;1.85;;
24357;SDS011;13668;52.154;5.580;2023-06-14T04:33:34;1.42;;;1.33;;
24357;SDS011;13668;52.154;5.580;2023-06-14T04:36:07;1.90;;;1.45;;
24357;SDS011;13668;52.154;5.580;2023-06-14T04:38:33;2.10;;;1.90;;
24357;SDS011;13668;52.154;5.580;2023-06-14T04:40:59;1.48;;;1.17;;
24357;SDS011;13668;52.154;5.580;2023-06-14T04:43:27;1.10;;;1.00;;
24357;SDS011;13668;52.154;5.580;2023-06-14T04:45:53;1.38;;;1.27;;
24357;SDS011;13668;52.154;5.580;2023-06-14T04:48:20;1.38;;;1.27;;
24357;SDS011;13668;52.154;5.580;2023-06-14T04:50:46;2.15;;;1.40;;
24357;SDS011;13668;52.154;5.580;2023-06-14T04:53:12;1.67;;;1.45;;
24357;SDS011;13668;52.154;5.580;2023-06-14T04:55:38;1.83;;;1.23;;
24357;SDS011;13668;52.154;5.580;2023-06-14T04:58:03;3.05;;;1.63;;
24357;SDS011;13668;52.154;5.580;2023-06-14T05:00:30;1.92;;;1.30;;
24357;SDS011;13668;52.154;5.580;2023-06-14T05:02:56;3.30;;;1.75;;
24357;SDS011;13668;52.154;5.580;2023-06-14T05:05:22;2.50;;;1.70;;
24357;SDS011;13668;52.154;5.580;2023-06-14T05:07:49;2.38;;;1.65;;
24357;SDS011;13668;52.154;5.580;2023-06-14T05:10:15;1.30;;;1.10;;
24357;SDS011;13668;52.154;5.580;2023-06-14T05:12:41;1.30;;;1.20;;
24357;SDS011;13668;52.154;5.580;2023-06-14T05:15:08;3.45;;;1.50;;
24357;SDS011;13668;52.154;5.580;2023-06-14T05:17:35;1.73;;;1.00;;
24357;SDS011;13668;52.154;5.580;2023-06-14T05:20:01;11.27;;;2.13;;
24357;SDS011;13668;52.154;5.580;2023-06-14T05:22:27;1.40;;;1.30;;
24357;SDS011;13668;52.154;5.580;2023-06-14T05:24:53;2.72;;;1.40;;
24357;SDS011;13668;52.154;5.580;2023-06-14T05:27:19;1.20;;;1.10;;
24357;SDS011;13668;52.154;5.580;2023-06-14T05:29:45;2.20;;;1.00;;
24357;SDS011;13668;52.154;5.580;2023-06-14T05:32:11;1.42;;;1.20;;
24357;SDS011;13668;52.154;5.580;2023-06-14T05:34:36;1.65;;;1.50;;
24357;SDS011;13668;52.154;5.580;2023-06-14T05:37:02;1.42;;;1.20;;
24357;SDS011;13668;52.154;5.580;2023-06-14T05:39:28;1.45;;;1.27;;
24357;SDS011;13668;52.154;5.580;2023-06-14T05:41:55;1.77;;;1.20;;
24357;SDS011;13668;52.154;5.580;2023-06-14T05:44:20;1.48;;;1.23;;
24357;SDS011;13668;52.154;5.580;2023-06-14T05:46:46;1.40;;;1.30;;
24357;SDS011;13668;52.154;5.580;2023-06-14T05:49:12;2.45;;;1.35;;
24357;SDS011;13668;52.154;5.580;2023-06-14T05:51:38;4.07;;;1.20;;
24357;SDS011;13668;52.154;5.580;2023-06-14T05:54:04;1.23;;;1.13;;
24357;SDS011;13668;52.154;5.580;2023-06-14T05:56:30;1.17;;;1.08;;
24357;SDS011;13668;52.154;5.580;2023-06-14T05:58:56;1.40;;;1.20;;
24357;SDS011;13668;52.154;5.580;2023-06-14T06:01:22;2.70;;;1.48;;
24357;SDS011;13668;52.154;5.580;2023-06-14T06:03:48;2.58;;;1.00;;
24357;SDS011;13668;52.154;5.580;2023-06-14T06:06:14;2.22;;;1.10;;
24357;SDS011;13668;52.154;5.580;2023-06-14T06:08:41;4.20;;;1.08;;
24357;SDS011;13668;52.154;5.580;2023-06-14T06:11:07;1.23;;;0.95;;
24357;SDS011;13668;52.154;5.580;2023-06-14T06:13:33;1.13;;;1.10;;
24357;SDS011;13668;52.154;5.580;2023-06-14T06:16:00;1.10;;;0.93;;
24357;SDS011;13668;52.154;5.580;2023-06-14T06:18:26;1.38;;;1.00;;
24357;SDS011;13668;52.154;5.580;2023-06-14T06:20:52;1.55;;;1.15;;
24357;SDS011;13668;52.154;5.580;2023-06-14T06:23:18;1.88;;;1.23;;
24357;SDS011;13668;52.154;5.580;2023-06-14T06:25:44;1.35;;;1.08;;
24357;SDS011;13668;52.154;5.580;2023-06-14T06:28:10;1.33;;;1.23;;
24357;SDS011;13668;52.154;5.580;2023-06-14T06:30:36;0.88;;;0.85;;
24357;SDS011;13668;52.154;5.580;2023-06-14T06:33:02;2.25;;;1.02;;
24357;SDS011;13668;52.154;5.580;2023-06-14T06:35:28;2.72;;;1.33;;
24357;SDS011;13668;52.154;5.580;2023-06-14T06:37:55;1.40;;;1.30;;
24357;SDS011;13668;52.154;5.580;2023-06-14T06:40:22;1.60;;;1.27;;
24357;SDS011;13668;52.154;5.580;2023-06-14T06:42:48;1.77;;;1.10;;
24357;SDS011;13668;52.154;5.580;2023-06-14T06:45:15;1.20;;;1.05;;
24357;SDS011;13668;52.154;5.580;2023-06-14T06:47:41;1.30;;;0.93;;
24357;SDS011;13668;52.154;5.580;2023-06-14T06:50:07;1.20;;;1.10;;
24357;SDS011;13668;52.154;5.580;2023-06-14T06:52:33;0.82;;;0.82;;
24357;SDS011;13668;52.154;5.580;2023-06-14T06:55:00;1.23;;;1.10;;
24357;SDS011;13668;52.154;5.580;2023-06-14T06:57:27;3.25;;;1.90;;
24357;SDS011;13668;52.154;5.580;2023-06-14T06:59:54;1.17;;;1.10;;
24357;SDS011;13668;52.154;5.580;2023-06-14T07:02:20;2.28;;;1.13;;
24357;SDS011;13668;52.154;5.580;2023-06-14T07:04:46;1.13;;;1.02;;
24357;SDS011;13668;52.154;5.580;2023-06-14T07:07:12;1.42;;;1.13;;
24357;SDS011;13668;52.154;5.580;2023-06-14T07:09:38;1.35;;;1.25;;
24357;SDS011;13668;52.154;5.580;2023-06-14T07:12:05;0.85;;;0.70;;
24357;SDS011;13668;52.154;5.580;2023-06-14T07:14:31;0.75;;;0.75;;
24357;SDS011;13668;52.154;5.580;2023-06-14T07:16:58;1.98;;;1.05;;
24357;SDS011;13668;52.154;5.580;2023-06-14T07:19:24;0.98;;;0.95;;
24357;SDS011;13668;52.154;5.580;2023-06-14T07:21:49;4.57;;;1.63;;
24357;SDS011;13668;52.154;5.580;2023-06-14T07:24:15;0.80;;;0.60;;
24357;SDS011;13668;52.154;5.580;2023-06-14T07:26:41;2.78;;;0.90;;
24357;SDS011;13668;52.154;5.580;2023-06-14T07:29:07;2.50;;;0.95;;
24357;SDS011;13668;52.154;5.580;2023-06-14T07:31:33;1.27;;;0.95;;
24357;SDS011;13668;52.154;5.580;2023-06-14T07:33:59;1.10;;;0.90;;
24357;SDS011;13668;52.154;5.580;2023-06-14T07:36:25;1.02;;;0.60;;
24357;SDS011;13668;52.154;5.580;2023-06-14T07:38:51;2.00;;;1.45;;
24357;SDS011;13668;52.154;5.580;2023-06-14T07:41:17;0.63;;;0.63;;
24357;SDS011;13668;52.154;5.580;2023-06-14T07:43:43;0.85;;;0.73;;
24357;SDS011;13668;52.154;5.580;2023-06-14T07:46:09;1.38;;;0.50;;
24357;SDS011;13668;52.154;5.580;2023-06-14T07:48:35;2.03;;;0.85;;
24357;SDS011;13668;52.154;5.580;2023-06-14T07:51:01;0.73;;;0.70;;
24357;SDS011;13668;52.154;5.580;2023-06-14T07:53:28;0.60;;;0.60;;
24357;SDS011;13668;52.154;5.580;2023-06-14T07:55:55;0.57;;;0.57;;
24357;SDS011;13668;52.154;5.580;2023-06-14T07:58:21;1.10;;;0.90;;
24357;SDS011;13668;52.154;5.580;2023-06-14T08:00:47;1.45;;;0.60;;
24357;SDS011;13668;52.154;5.580;2023-06-14T08:03:14;2.45;;;1.20;;
24357;SDS011;13668;52.154;5.580;2023-06-14T08:05:40;0.70;;;0.60;;
24357;SDS011;13668;52.154;5.580;2023-06-14T08:08:06;1.70;;;0.57;;
24357;SDS011;13668;52.154;5.580;2023-06-14T08:10:32;0.70;;;0.52;;
24357;SDS011;13668;52.154;5.580;2023-06-14T08:12:58;0.35;;;0.30;;
24357;SDS011;13668;52.154;5.580;2023-06-14T08:15:24;0.50;;;0.50;;
24357;SDS011;13668;52.154;5.580;2023-06-14T08:17:50;3.45;;;0.63;;
24357;SDS011;13668;52.154;5.580;2023-06-14T08:20:16;0.40;;;0.40;;
24357;SDS011;13668;52.154;5.580;2023-06-14T08:22:42;0.50;;;0.50;;
24357;SDS011;13668;52.154;5.580;2023-06-14T08:25:11;0.85;;;0.73;;
24357;SDS011;13668;52.154;5.580;2023-06-14T08:27:37;0.57;;;0.57;;
24357;SDS011;13668;52.154;5.580;2023-06-14T08:30:03;0.43;;;0.43;;
24357;SDS011;13668;52.154;5.580;2023-06-14T08:32:29;0.60;;;0.60;;
24357;SDS011;13668;52.154;5.580;2023-06-14T08:34:55;0.65;;;0.47;;
24357;SDS011;13668;52.154;5.580;2023-06-14T08:37:21;0.25;;;0.25;;
24357;SDS011;13668;52.154;5.580;2023-06-14T08:39:47;0.85;;;0.57;;
24357;SDS011;13668;52.154;5.580;2023-06-14T08:42:13;0.80;;;0.50;;
24357;SDS011;13668;52.154;5.580;2023-06-14T08:44:40;0.60;;;0.45;;
24357;SDS011;13668;52.154;5.580;2023-06-14T08:47:06;1.70;;;0.40;;
24357;SDS011;13668;52.154;5.580;2023-06-14T08:49:33;0.70;;;0.68;;
24357;SDS011;13668;52.154;5.580;2023-06-14T08:52:01;0.40;;;0.40;;
24357;SDS011;13668;52.154;5.580;2023-06-14T08:54:28;0.40;;;0.30;;
24357;SDS011;13668;52.154;5.580;2023-06-14T08:57:00;0.55;;;0.50;;
24357;SDS011;13668;52.154;5.580;2023-06-14T08:59:26;0.28;;;0.20;;
24357;SDS011;13668;52.154;5.580;2023-06-14T09:01:53;0.63;;;0.47;;
24357;SDS011;13668;52.154;5.580;2023-06-14T09:04:22;1.05;;;0.93;;
24357;SDS011;13668;52.154;5.580;2023-06-14T09:06:53;0.40;;;0.40;;
24357;SDS011;13668;52.154;5.580;2023-06-14T09:09:20;0.63;;;0.50;;
24357;SDS011;13668;52.154;5.580;2023-06-14T09:11:47;0.60;;;0.60;;
24357;SDS011;13668;52.154;5.580;2023-06-14T09:14:13;0.65;;;0.30;;
24357;SDS011;13668;52.154;5.580;2023-06-14T09:16:39;0.60;;;0.38;;
24357;SDS011;13668;52.154;5.580;2023-06-14T09:19:05;1.35;;;0.50;;
24357;SDS011;13668;52.154;5.580;2023-06-14T09:21:33;0.50;;;0.50;;
24357;SDS011;13668;52.154;5.580;2023-06-14T09:24:01;0.73;;;0.60;;
24357;SDS011;13668;52.154;5.580;2023-06-14T09:26:27;0.77;;;0.52;;
24357;SDS011;13668;52.154;5.580;2023-06-14T09:28:54;0.47;;;0.47;;
24357;SDS011;13668;52.154;5.580;2023-06-14T09:31:20;0.38;;;0.32;;
24357;SDS011;13668;52.154;5.580;2023-06-14T09:33:50;1.75;;;0.35;;
24357;SDS011;13668;52.154;5.580;2023-06-14T09:38:43;1.52;;;0.77;;
24357;SDS011;13668;52.154;5.580;2023-06-14T09:41:17;0.50;;;0.50;;
24357;SDS011;13668;52.154;5.580;2023-06-14T09:43:43;0.70;;;0.60;;
24357;SDS011;13668;52.154;5.580;2023-06-14T09:46:10;1.08;;;0.98;;
24357;SDS011;13668;52.154;5.580;2023-06-14T09:48:36;0.40;;;0.40;;
24357;SDS011;13668;52.154;5.580;2023-06-14T09:51:04;0.45;;;0.40;;
24357;SDS011;13668;52.154;5.580;2023-06-14T09:53:31;0.73;;;0.40;;
24357;SDS011;13668;52.154;5.580;2023-06-14T09:55:58;0.35;;;0.30;;
24357;SDS011;13668;52.154;5.580;2023-06-14T09:58:25;1.10;;;0.73;;
24357;SDS011;13668;52.154;5.580;2023-06-14T10:00:52;0.38;;;0.30;;
24357;SDS011;13668;52.154;5.580;2023-06-14T10:03:21;0.70;;;0.70;;
24357;SDS011;13668;52.154;5.580;2023-06-14T10:05:47;0.45;;;0.40;;
24357;SDS011;13668;52.154;5.580;2023-06-14T10:08:15;1.38;;;0.85;;
24357;SDS011;13668;52.154;5.580;2023-06-14T10:10:42;0.88;;;0.50;;
24357;SDS011;13668;52.154;5.580;2023-06-14T10:13:09;1.38;;;0.80;;
24357;SDS011;13668;52.154;5.580;2023-06-14T10:18:07;0.55;;;0.40;;
24357;SDS011;13668;52.154;5.580;2023-06-14T10:20:41;1.65;;;0.60;;
24357;SDS011;13668;52.154;5.580;2023-06-14T10:23:16;0.60;;;0.55;;
24357;SDS011;13668;52.154;5.580;2023-06-14T10:25:43;0.50;;;0.50;;
24357;SDS011;13668;52.154;5.580;2023-06-14T10:30:38;1.90;;;0.65;;
24357;SDS011;13668;52.154;5.580;2023-06-14T10:33:04;0.50;;;0.38;;
24357;SDS011;13668;52.154;5.580;2023-06-14T10:35:31;0.65;;;0.32;;
24357;SDS011;13668;52.154;5.580;2023-06-14T10:38:06;0.50;;;0.50;;
24357;SDS011;13668;52.154;5.580;2023-06-14T10:40:32;0.60;;;0.55;;
24357;SDS011;13668;52.154;5.580;2023-06-14T10:42:58;0.80;;;0.75;;
24357;SDS011;13668;52.154;5.580;2023-06-14T10:45:24;0.70;;;0.47;;
24357;SDS011;13668;52.154;5.580;2023-06-14T10:47:50;1.50;;;0.40;;
24357;SDS011;13668;52.154;5.580;2023-06-14T10:50:19;0.50;;;0.50;;
24357;SDS011;13668;52.154;5.580;2023-06-14T10:52:53;0.80;;;0.75;;
24357;SDS011;13668;52.154;5.580;2023-06-14T10:55:19;0.63;;;0.40;;
24357;SDS011;13668;52.154;5.580;2023-06-14T10:57:51;0.60;;;0.40;;
24357;SDS011;13668;52.154;5.580;2023-06-14T11:00:22;0.90;;;0.68;;
24357;SDS011;13668;52.154;5.580;2023-06-14T11:03:15;1.00;;;0.70;;
24357;SDS011;13668;52.154;5.580;2023-06-14T11:11:00;0.93;;;0.70;;
24357;SDS011;13668;52.154;5.580;2023-06-14T11:13:31;0.95;;;0.50;;
24357;SDS011;13668;52.154;5.580;2023-06-14T11:15:57;0.52;;;0.52;;
24357;SDS011;13668;52.154;5.580;2023-06-14T11:18:23;0.60;;;0.60;;
24357;SDS011;13668;52.154;5.580;2023-06-14T11:20:49;0.73;;;0.57;;
24357;SDS011;13668;52.154;5.580;2023-06-14T11:23:15;0.70;;;0.52;;
24357;SDS011;13668;52.154;5.580;2023-06-14T11:25:41;0.75;;;0.50;;
24357;SDS011;13668;52.154;5.580;2023-06-14T11:28:07;1.27;;;0.73;;
24357;SDS011;13668;52.154;5.580;2023-06-14T11:30:33;0.63;;;0.60;;
24357;SDS011;13668;52.154;5.580;2023-06-14T11:32:59;1.05;;;0.65;;
24357;SDS011;13668;52.154;5.580;2023-06-14T11:35:26;0.80;;;0.60;;
24357;SDS011;13668;52.154;5.580;2023-06-14T11:37:52;0.93;;;0.87;;
24357;SDS011;13668;52.154;5.580;2023-06-14T11:40:18;0.52;;;0.52;;
24357;SDS011;13668;52.154;5.580;2023-06-14T11:42:44;0.63;;;0.63;;
24357;SDS011;13668;52.154;5.580;2023-06-14T11:45:11;0.88;;;0.73;;
24357;SDS011;13668;52.154;5.580;2023-06-14T11:47:38;0.93;;;0.50;;
24357;SDS011;13668;52.154;5.580;2023-06-14T11:50:05;1.15;;;1.00;;
24357;SDS011;13668;52.154;5.580;2023-06-14T11:52:31;0.85;;;0.57;;
24357;SDS011;13668;52.154;5.580;2023-06-14T11:54:57;1.88;;;0.55;;
24357;SDS011;13668;52.154;5.580;2023-06-14T11:57:24;0.40;;;0.40;;
24357;SDS011;13668;52.154;5.580;2023-06-14T11:59:50;0.77;;;0.70;;
24357;SDS011;13668;52.154;5.580;2023-06-14T12:02:17;0.65;;;0.60;;
24357;SDS011;13668;52.154;5.580;2023-06-14T12:04:43;0.45;;;0.45;;
24357;SDS011;13668;52.154;5.580;2023-06-14T12:07:10;0.40;;;0.40;;
24357;SDS011;13668;52.154;5.580;2023-06-14T12:12:17;1.95;;;0.75;;
24357;SDS011;13668;52.154;5.580;2023-06-14T12:14:43;2.42;;;0.82;;
24357;SDS011;13668;52.154;5.580;2023-06-14T12:17:09;2.97;;;0.82;;
24357;SDS011;13668;52.154;5.580;2023-06-14T12:19:42;0.82;;;0.50;;
24357;SDS011;13668;52.154;5.580;2023-06-14T12:22:09;0.60;;;0.60;;
24357;SDS011;13668;52.154;5.580;2023-06-14T12:24:38;0.63;;;0.52;;
24357;SDS011;13668;52.154;5.580;2023-06-14T12:27:04;1.25;;;0.55;;
24357;SDS011;13668;52.154;5.580;2023-06-14T12:29:30;0.63;;;0.40;;
24357;SDS011;13668;52.154;5.580;2023-06-14T12:31:56;0.60;;;0.50;;
24357;SDS011;13668;52.154;5.580;2023-06-14T12:34:26;0.60;;;0.60;;
24357;SDS011;13668;52.154;5.580;2023-06-14T12:36:55;1.08;;;0.80;;
24357;SDS011;13668;52.154;5.580;2023-06-14T12:39:21;1.13;;;0.82;;
24357;SDS011;13668;52.154;5.580;2023-06-14T12:41:48;0.68;;;0.50;;
24357;SDS011;13668;52.154;5.580;2023-06-14T12:44:14;0.70;;;0.50;;
24357;SDS011;13668;52.154;5.580;2023-06-14T12:46:43;0.68;;;0.60;;
24357;SDS011;13668;52.154;5.580;2023-06-14T12:49:10;0.57;;;0.50;;
24357;SDS011;13668;52.154;5.580;2023-06-14T12:51:36;1.20;;;0.60;;
24357;SDS011;13668;52.154;5.580;2023-06-14T12:54:02;0.63;;;0.50;;
24357;SDS011;13668;52.154;5.580;2023-06-14T12:56:28;0.40;;;0.40;;
24357;SDS011;13668;52.154;5.580;2023-06-14T12:58:54;0.80;;;0.60;;
24357;SDS011;13668;52.154;5.580;2023-06-14T13:01:20;0.90;;;0.60;;
24357;SDS011;13668;52.154;5.580;2023-06-14T13:03:46;0.68;;;0.60;;
24357;SDS011;13668;52.154;5.580;2023-06-14T13:06:13;0.68;;;0.68;;
24357;SDS011;13668;52.154;5.580;2023-06-14T13:08:39;0.80;;;0.60;;
24357;SDS011;13668;52.154;5.580;2023-06-14T13:11:05;0.98;;;0.70;;
24357;SDS011;13668;52.154;5.580;2023-06-14T13:13:31;0.70;;;0.70;;
24357;SDS011;13668;52.154;5.580;2023-06-14T13:15:56;1.17;;;0.70;;
24357;SDS011;13668;52.154;5.580;2023-06-14T13:18:22;0.60;;;0.47;;
24357;SDS011;13668;52.154;5.580;2023-06-14T13:20:48;0.70;;;0.70;;
24357;SDS011;13668;52.154;5.580;2023-06-14T13:23:15;0.70;;;0.70;;
24357;SDS011;13668;52.154;5.580;2023-06-14T13:25:41;0.60;;;0.50;;
24357;SDS011;13668;52.154;5.580;2023-06-14T13:28:10;5.22;;;1.05;;
24357;SDS011;13668;52.154;5.580;2023-06-14T13:30:35;1.23;;;0.52;;
24357;SDS011;13668;52.154;5.580;2023-06-14T13:33:02;0.50;;;0.50;;
24357;SDS011;13668;52.154;5.580;2023-06-14T13:35:28;0.50;;;0.50;;
24357;SDS011;13668;52.154;5.580;2023-06-14T13:37:54;0.57;;;0.57;;
24357;SDS011;13668;52.154;5.580;2023-06-14T13:40:20;0.98;;;0.60;;
24357;SDS011;13668;52.154;5.580;2023-06-14T13:42:46;0.40;;;0.40;;
24357;SDS011;13668;52.154;5.580;2023-06-14T13:45:13;0.47;;;0.45;;
24357;SDS011;13668;52.154;5.580;2023-06-14T13:47:39;2.03;;;1.00;;
24357;SDS011;13668;52.154;5.580;2023-06-14T13:50:05;0.57;;;0.50;;
24357;SDS011;13668;52.154;5.580;2023-06-14T13:52:32;0.50;;;0.50;;
24357;SDS011;13668;52.154;5.580;2023-06-14T13:54:58;0.30;;;0.30;;
24357;SDS011;13668;52.154;5.580;2023-06-14T13:57:25;4.72;;;0.77;;
24357;SDS011;13668;52.154;5.580;2023-06-14T13:59:51;0.60;;;0.60;;
24357;SDS011;13668;52.154;5.580;2023-06-14T14:02:20;0.63;;;0.57;;
24357;SDS011;13668;52.154;5.580;2023-06-14T14:04:46;0.70;;;0.35;;
24357;SDS011;13668;52.154;5.580;2023-06-14T14:07:17;0.65;;;0.60;;
24357;SDS011;13668;52.154;5.580;2023-06-14T14:09:44;0.40;;;0.40;;
24357;SDS011;13668;52.154;5.580;2023-06-14T14:12:10;0.63;;;0.50;;
24357;SDS011;13668;52.154;5.580;2023-06-14T14:14:36;1.05;;;0.70;;
24357;SDS011;13668;52.154;5.580;2023-06-14T14:17:02;0.80;;;0.80;;
24357;SDS011;13668;52.154;5.580;2023-06-14T14:19:29;0.70;;;0.65;;
24357;SDS011;13668;52.154;5.580;2023-06-14T14:21:55;0.98;;;0.60;;
24357;SDS011;13668;52.154;5.580;2023-06-14T14:24:21;0.50;;;0.40;;
24357;SDS011;13668;52.154;5.580;2023-06-14T14:26:47;1.67;;;1.20;;
24357;SDS011;13668;52.154;5.580;2023-06-14T14:29:14;0.52;;;0.50;;
24357;SDS011;13668;52.154;5.580;2023-06-14T14:31:40;0.55;;;0.55;;
24357;SDS011;13668;52.154;5.580;2023-06-14T14:34:06;0.57;;;0.40;;
24357;SDS011;13668;52.154;5.580;2023-06-14T14:36:32;0.52;;;0.30;;
24357;SDS011;13668;52.154;5.580;2023-06-14T14:39:01;0.63;;;0.32;;
24357;SDS011;13668;52.154;5.580;2023-06-14T14:41:27;0.60;;;0.50;;
24357;SDS011;13668;52.154;5.580;2023-06-14T14:43:53;1.58;;;0.60;;
24357;SDS011;13668;52.154;5.580;2023-06-14T14:46:19;0.75;;;0.60;;
24357;SDS011;13668;52.154;5.580;2023-06-14T14:48:45;0.30;;;0.30;;
24357;SDS011;13668;52.154;5.580;2023-06-14T14:51:11;0.32;;;0.32;;
24357;SDS011;13668;52.154;5.580;2023-06-14T14:53:37;0.82;;;0.35;;
24357;SDS011;13668;52.154;5.580;2023-06-14T14:56:03;1.33;;;0.60;;
24357;SDS011;13668;52.154;5.580;2023-06-14T14:58:29;0.65;;;0.50;;
24357;SDS011;13668;52.154;5.580;2023-06-14T15:00:55;0.90;;;0.28;;
24357;SDS011;13668;52.154;5.580;2023-06-14T15:03:21;1.02;;;0.50;;
24357;SDS011;13668;52.154;5.580;2023-06-14T15:05:47;1.55;;;0.52;;